createdAt,value
2017-12-11T00:00:10.061Z,2.9
2017-12-11T00:01:10.862Z,2.9
2017-12-11T00:02:11.753Z,3.0
2017-12-11T00:03:12.468Z,2.9
2017-12-11T00:04:13.198Z,2.9
2017-12-11T00:05:14.019Z,2.9
2017-12-11T00:06:14.825Z,2.8
2017-12-11T00:07:15.524Z,2.8
2017-12-11T00:08:16.326Z,2.8
2017-12-11T00:09:17.088Z,2.7
2017-12-11T00:10:17.867Z,2.8
2017-12-11T00:11:18.652Z,2.8
2017-12-11T00:12:19.320Z,2.8
2017-12-11T00:13:20.123Z,2.7
2017-12-11T00:14:20.849Z,2.6
2017-12-11T00:15:21.613Z,2.6
2017-12-11T00:16:22.413Z,2.6
2017-12-11T00:17:23.173Z,2.7
2017-12-11T00:18:24.004Z,2.5
2017-12-11T00:19:24.699Z,2.5
2017-12-11T00:20:25.565Z,2.5
2017-12-11T00:21:26.288Z,2.5
2017-12-11T00:22:27.080Z,2.4
2017-12-11T00:23:27.823Z,2.4
2017-12-11T00:24:28.613Z,2.4
2017-12-11T00:25:29.370Z,2.4
2017-12-11T00:26:30.081Z,2.4
2017-12-11T00:27:30.811Z,2.3
2017-12-11T00:28:31.582Z,2.3
2017-12-11T00:29:32.315Z,2.3
2017-12-11T00:30:33.073Z,2.3
2017-12-11T00:31:33.873Z,2.4
2017-12-11T00:32:34.661Z,2.3
2017-12-11T00:33:35.432Z,2.4
2017-12-11T00:34:36.154Z,2.3
2017-12-11T00:35:36.876Z,2.4
2017-12-11T00:36:37.669Z,2.3
2017-12-11T00:37:38.479Z,2.3
2017-12-11T00:38:39.312Z,2.3
2017-12-11T00:39:40.182Z,2.3
2017-12-11T00:40:40.893Z,2.2
2017-12-11T00:41:41.674Z,2.3
2017-12-11T00:42:42.393Z,2.2
2017-12-11T00:43:43.252Z,2.2
2017-12-11T00:44:43.981Z,2.2
2017-12-11T00:45:44.756Z,2.3
2017-12-11T00:46:45.839Z,2.2
2017-12-11T00:47:46.745Z,2.2
2017-12-11T00:48:47.673Z,2.1
2017-12-11T00:49:49.549Z,2.2
2017-12-11T00:50:50.223Z,2.2
2017-12-11T00:51:51.005Z,2.2
2017-12-11T00:52:51.792Z,2.2
2017-12-11T00:53:52.567Z,2.2
2017-12-11T00:54:53.453Z,2.2
2017-12-11T00:55:54.177Z,2.1
2017-12-11T00:56:54.891Z,2.2
2017-12-11T00:57:55.612Z,2.1
2017-12-11T00:58:56.332Z,2.2
2017-12-11T00:59:57.048Z,2.0
2017-12-11T01:00:57.821Z,2.0
2017-12-11T01:01:58.612Z,2.1
2017-12-11T01:02:59.391Z,2.0
2017-12-11T01:04:00.162Z,2.1
2017-12-11T01:05:00.882Z,2.1
2017-12-11T01:06:01.663Z,2.1
2017-12-11T01:07:02.453Z,2.0
2017-12-11T01:08:03.171Z,2.1
2017-12-11T01:09:03.883Z,2.0
2017-12-11T01:10:04.679Z,2.0
2017-12-11T01:11:05.403Z,2.0
2017-12-11T01:12:06.131Z,2.0
2017-12-11T01:13:06.864Z,1.9
2017-12-11T01:14:07.693Z,2.0
2017-12-11T01:15:08.414Z,2.0
2017-12-11T01:16:09.125Z,1.9
2017-12-11T01:17:09.937Z,2.0
2017-12-11T01:18:10.703Z,2.0
2017-12-11T01:19:11.492Z,1.9
2017-12-11T01:20:12.263Z,2.0
2017-12-11T01:21:13.058Z,1.9
2017-12-11T01:22:13.822Z,1.8
2017-12-11T01:23:14.535Z,1.9
2017-12-11T01:24:15.331Z,1.8
2017-12-11T01:25:16.055Z,1.8
2017-12-11T01:26:16.770Z,1.8
2017-12-11T01:27:17.492Z,1.7
2017-12-11T01:28:18.273Z,1.8
2017-12-11T01:29:19.082Z,1.8
2017-12-11T01:30:19.830Z,1.8
2017-12-11T01:31:20.555Z,1.8
2017-12-11T01:32:21.365Z,1.8
2017-12-11T01:33:22.087Z,1.7
2017-12-11T01:34:22.875Z,1.7
2017-12-11T01:35:23.593Z,1.7
2017-12-11T01:36:24.313Z,1.7
2017-12-11T01:37:25.143Z,1.7
2017-12-11T01:38:25.861Z,1.7
2017-12-11T01:39:26.632Z,1.7
2017-12-11T01:40:27.354Z,1.7
2017-12-11T01:41:28.066Z,1.6
2017-12-11T01:42:28.872Z,1.7
2017-12-11T01:43:29.626Z,1.7
2017-12-11T01:44:30.332Z,1.7
2017-12-11T01:45:31.128Z,1.7
2017-12-11T01:46:31.842Z,1.7
2017-12-11T01:47:32.616Z,1.6
2017-12-11T01:48:33.390Z,1.6
2017-12-11T01:49:34.182Z,1.5
2017-12-11T01:50:34.906Z,1.5
2017-12-11T01:51:35.693Z,1.6
2017-12-11T01:52:36.489Z,1.6
2017-12-11T01:53:37.260Z,1.5
2017-12-11T01:54:37.973Z,1.5
2017-12-11T01:55:38.729Z,1.5
2017-12-11T01:56:39.457Z,1.5
2017-12-11T01:57:40.241Z,1.5
2017-12-11T01:58:40.964Z,1.5
2017-12-11T01:59:41.712Z,1.5
2017-12-11T02:00:42.450Z,1.5
2017-12-11T02:01:43.192Z,1.5
2017-12-11T02:02:43.914Z,1.5
2017-12-11T02:03:44.708Z,1.6
2017-12-11T02:04:45.501Z,1.5
2017-12-11T02:05:46.272Z,1.5
2017-12-11T02:06:46.994Z,1.5
2017-12-11T02:07:47.784Z,1.4
2017-12-11T02:08:48.552Z,1.5
2017-12-11T02:09:49.263Z,1.4
2017-12-11T02:10:49.982Z,1.4
2017-12-11T02:11:50.698Z,1.4
2017-12-11T02:12:51.422Z,1.4
2017-12-11T02:13:52.204Z,1.4
2017-12-11T02:14:53.015Z,1.5
2017-12-11T02:15:53.753Z,1.3
2017-12-11T02:16:54.532Z,1.4
2017-12-11T02:17:55.241Z,1.4
2017-12-11T02:18:56.023Z,1.3
2017-12-11T02:19:56.746Z,1.3
2017-12-11T02:20:57.531Z,1.3
2017-12-11T02:21:58.249Z,1.3
2017-12-11T02:22:58.961Z,1.4
2017-12-11T02:23:59.749Z,1.4
2017-12-11T02:25:00.539Z,1.3
2017-12-11T02:26:01.311Z,1.4
2017-12-11T02:27:02.028Z,1.4
2017-12-11T02:28:02.750Z,1.4
2017-12-11T02:29:03.527Z,1.4
2017-12-11T02:30:04.296Z,1.4
2017-12-11T02:31:05.063Z,1.3
2017-12-11T02:32:05.772Z,1.3
2017-12-11T02:33:06.484Z,1.4
2017-12-11T02:34:07.312Z,1.3
2017-12-11T02:35:08.021Z,1.4
2017-12-11T02:36:08.736Z,1.2
2017-12-11T02:37:09.492Z,1.3
2017-12-11T02:38:10.223Z,1.4
2017-12-11T02:39:10.992Z,1.4
2017-12-11T02:40:11.713Z,1.3
2017-12-11T02:41:12.440Z,1.3
2017-12-11T02:42:13.242Z,1.4
2017-12-11T02:43:13.902Z,1.3
2017-12-11T02:44:14.627Z,1.2
2017-12-11T02:45:15.445Z,1.3
2017-12-11T02:46:16.256Z,1.2
2017-12-11T02:47:16.977Z,1.3
2017-12-11T02:48:17.747Z,1.3
2017-12-11T02:49:18.532Z,1.3
2017-12-11T02:50:19.306Z,1.4
2017-12-11T02:51:20.091Z,1.3
2017-12-11T02:52:20.812Z,1.4
2017-12-11T02:53:21.535Z,1.3
2017-12-11T02:54:22.321Z,1.3
2017-12-11T02:55:23.094Z,1.3
2017-12-11T02:56:23.822Z,1.3
2017-12-11T02:57:24.533Z,1.3
2017-12-11T02:58:25.254Z,1.3
2017-12-11T02:59:25.971Z,1.2
2017-12-11T03:00:26.742Z,1.3
2017-12-11T03:01:27.478Z,1.3
2017-12-11T03:02:28.236Z,1.3
2017-12-11T03:03:28.962Z,1.2
2017-12-11T03:04:29.680Z,1.3
2017-12-11T03:05:30.463Z,1.3
2017-12-11T03:06:31.243Z,1.2
2017-12-11T03:07:31.901Z,1.3
2017-12-11T03:08:32.627Z,1.3
2017-12-11T03:09:33.409Z,1.3
2017-12-11T03:10:34.124Z,1.2
2017-12-11T03:11:34.843Z,1.2
2017-12-11T03:12:35.613Z,1.3
2017-12-11T03:13:49.077Z,1.2
2017-12-11T03:14:49.834Z,1.3
2017-12-11T03:15:50.570Z,1.3
2017-12-11T03:16:51.283Z,1.2
2017-12-11T03:17:52.053Z,1.3
2017-12-11T03:18:52.768Z,1.3
2017-12-11T03:19:53.489Z,1.2
2017-12-11T03:20:54.202Z,1.2
2017-12-11T03:21:54.990Z,1.3
2017-12-11T03:22:55.708Z,1.2
2017-12-11T03:23:56.491Z,1.2
2017-12-11T03:24:57.269Z,1.3
2017-12-11T03:25:57.987Z,1.3
2017-12-11T03:26:58.737Z,1.3
2017-12-11T03:27:59.573Z,1.3
2017-12-11T03:29:00.288Z,1.3
2017-12-11T03:30:00.994Z,1.3
2017-12-11T03:31:01.720Z,1.2
2017-12-11T03:32:02.479Z,1.2
2017-12-11T03:33:03.321Z,1.3
2017-12-11T03:34:04.112Z,1.2
2017-12-11T03:35:04.833Z,1.3
2017-12-11T03:36:05.563Z,1.2
2017-12-11T03:37:06.278Z,1.2
2017-12-11T03:38:07.045Z,1.2
2017-12-11T03:39:07.749Z,1.3
2017-12-11T03:40:08.472Z,1.3
2017-12-11T03:41:09.185Z,1.2
2017-12-11T03:42:09.970Z,1.2
2017-12-11T03:43:10.737Z,1.3
2017-12-11T03:44:11.530Z,1.2
2017-12-11T03:45:12.266Z,1.2
2017-12-11T03:46:12.978Z,1.2
2017-12-11T03:47:13.746Z,1.2
2017-12-11T03:48:14.518Z,1.3
2017-12-11T03:49:15.275Z,1.2
2017-12-11T03:50:15.997Z,1.2
2017-12-11T03:51:16.784Z,1.3
2017-12-11T03:52:17.584Z,1.3
2017-12-11T03:53:18.383Z,1.2
2017-12-11T03:54:19.220Z,1.2
2017-12-11T03:55:19.968Z,1.2
2017-12-11T03:56:20.724Z,1.3
2017-12-11T03:57:21.514Z,1.3
2017-12-11T03:58:22.230Z,1.3
2017-12-11T03:59:23.006Z,1.3
2017-12-11T04:00:23.765Z,1.3
2017-12-11T04:01:24.475Z,1.3
2017-12-11T04:02:25.190Z,1.2
2017-12-11T04:03:25.905Z,1.2
2017-12-11T04:04:26.672Z,1.3
2017-12-11T04:05:27.337Z,1.2
2017-12-11T04:06:28.116Z,1.2
2017-12-11T04:07:28.834Z,1.3
2017-12-11T04:08:29.590Z,1.2
2017-12-11T04:09:30.303Z,1.3
2017-12-11T04:10:31.069Z,1.3
2017-12-11T04:11:31.862Z,1.3
2017-12-11T04:12:32.648Z,1.2
2017-12-11T04:13:33.437Z,1.3
2017-12-11T04:14:34.180Z,1.3
2017-12-11T04:15:34.900Z,1.2
2017-12-11T04:16:35.625Z,1.2
2017-12-11T04:17:36.335Z,1.2
2017-12-11T04:18:37.092Z,1.3
2017-12-11T04:19:37.822Z,1.2
2017-12-11T04:20:38.574Z,1.2
2017-12-11T04:21:39.296Z,1.2
2017-12-11T04:22:40.069Z,1.2
2017-12-11T04:23:40.783Z,1.2
2017-12-11T04:24:41.548Z,1.3
2017-12-11T04:25:42.223Z,1.2
2017-12-11T04:26:42.931Z,1.2
2017-12-11T04:27:43.654Z,1.2
2017-12-11T04:28:44.424Z,1.2
2017-12-11T04:29:45.210Z,1.1
2017-12-11T04:30:45.933Z,1.2
2017-12-11T04:31:46.710Z,1.2
2017-12-11T04:32:47.403Z,1.2
2017-12-11T04:33:48.116Z,1.1
2017-12-11T04:34:48.911Z,1.1
2017-12-11T04:35:49.676Z,1.1
2017-12-11T04:36:50.464Z,1.2
2017-12-11T04:37:51.172Z,1.1
2017-12-11T04:38:51.904Z,1.1
2017-12-11T04:39:52.630Z,1.1
2017-12-11T04:40:53.466Z,1.1
2017-12-11T04:41:54.261Z,1.2
2017-12-11T04:42:55.023Z,1.1
2017-12-11T04:43:55.743Z,1.1
2017-12-11T04:44:56.500Z,1.2
2017-12-11T04:45:57.269Z,1.2
2017-12-11T04:46:57.984Z,1.2
2017-12-11T04:47:58.704Z,1.1
2017-12-11T04:48:59.431Z,1.2
2017-12-11T04:50:00.154Z,1.1
2017-12-11T04:51:00.921Z,1.1
2017-12-11T04:52:01.684Z,1.1
2017-12-11T04:53:02.391Z,1.2
2017-12-11T04:54:03.117Z,1.1
2017-12-11T04:55:03.837Z,1.2
2017-12-11T04:56:04.596Z,1.1
2017-12-11T04:57:05.359Z,1.1
2017-12-11T04:58:06.085Z,1.1
2017-12-11T04:59:06.923Z,1.1
2017-12-11T05:00:07.653Z,1.1
2017-12-11T05:01:08.364Z,1.1
2017-12-11T05:02:09.070Z,1.1
2017-12-11T05:03:09.792Z,1.2
2017-12-11T05:04:10.592Z,1.1
2017-12-11T05:05:11.376Z,1.1
2017-12-11T05:06:12.170Z,1.1
2017-12-11T05:07:12.880Z,1.1
2017-12-11T05:08:13.589Z,1.2
2017-12-11T05:09:14.350Z,1.2
2017-12-11T05:10:15.074Z,1.2
2017-12-11T05:11:15.804Z,1.2
2017-12-11T05:12:16.523Z,1.1
2017-12-11T05:13:17.242Z,1.1
2017-12-11T05:14:18.083Z,1.2
2017-12-11T05:15:18.849Z,1.1
2017-12-11T05:16:19.637Z,1.2
2017-12-11T05:17:20.352Z,1.2
2017-12-11T05:18:21.069Z,1.0
2017-12-11T05:19:21.817Z,1.1
2017-12-11T05:20:22.589Z,1.1
2017-12-11T05:21:23.361Z,1.0
2017-12-11T05:22:24.079Z,1.1
2017-12-11T05:23:24.857Z,1.1
2017-12-11T05:24:25.653Z,1.0
2017-12-11T05:25:26.407Z,1.0
2017-12-11T05:26:27.232Z,1.1
2017-12-11T05:27:27.943Z,1.1
2017-12-11T05:28:28.652Z,1.0
2017-12-11T05:29:29.378Z,1.2
2017-12-11T05:30:30.138Z,1.0
2017-12-11T05:31:30.853Z,1.0
2017-12-11T05:32:31.569Z,1.0
2017-12-11T05:33:32.287Z,1.1
2017-12-11T05:34:33.012Z,1.0
2017-12-11T05:35:33.808Z,1.1
2017-12-11T05:36:34.531Z,1.1
2017-12-11T05:37:35.301Z,1.1
2017-12-11T05:38:36.018Z,1.1
2017-12-11T05:39:36.742Z,1.1
2017-12-11T05:40:37.454Z,1.1
2017-12-11T05:41:38.234Z,1.1
2017-12-11T05:42:39.018Z,1.1
2017-12-11T05:43:39.804Z,1.1
2017-12-11T05:44:40.522Z,1.1
2017-12-11T05:45:41.238Z,1.0
2017-12-11T05:46:41.950Z,1.1
2017-12-11T05:47:42.660Z,1.1
2017-12-11T05:48:43.450Z,1.1
2017-12-11T05:49:44.180Z,1.1
2017-12-11T05:50:44.972Z,1.0
2017-12-11T05:51:45.688Z,1.1
2017-12-11T05:52:46.417Z,1.0
2017-12-11T05:53:47.190Z,1.0
2017-12-11T05:54:47.944Z,1.2
2017-12-11T05:55:48.736Z,1.1
2017-12-11T05:56:49.506Z,1.1
2017-12-11T05:57:50.232Z,1.0
2017-12-11T05:58:50.951Z,1.0
2017-12-11T05:59:51.679Z,1.0
2017-12-11T06:00:52.434Z,1.0
2017-12-11T06:01:53.218Z,1.1
2017-12-11T06:02:53.937Z,1.1
2017-12-11T06:03:54.742Z,1.0
2017-12-11T06:04:55.576Z,1.0
2017-12-11T06:05:56.359Z,1.1
2017-12-11T06:06:57.073Z,1.1
2017-12-11T06:07:57.788Z,1.1
2017-12-11T06:08:58.514Z,1.1
2017-12-11T06:09:59.295Z,1.1
2017-12-11T06:11:00.009Z,1.2
2017-12-11T06:12:00.733Z,1.1
2017-12-11T06:13:01.515Z,1.1
2017-12-11T06:14:02.220Z,1.1
2017-12-11T06:15:02.981Z,1.1
2017-12-11T06:16:03.699Z,1.1
2017-12-11T06:17:04.420Z,1.1
2017-12-11T06:18:05.171Z,1.0
2017-12-11T06:19:05.887Z,1.1
2017-12-11T06:20:06.623Z,1.0
2017-12-11T06:21:07.380Z,1.1
2017-12-11T06:22:08.160Z,1.1
2017-12-11T06:23:08.963Z,1.1
2017-12-11T06:24:09.683Z,1.1
2017-12-11T06:25:10.458Z,1.1
2017-12-11T06:26:11.295Z,1.1
2017-12-11T06:27:12.208Z,1.1
2017-12-11T06:28:12.924Z,1.1
2017-12-11T06:29:13.643Z,1.1
2017-12-11T06:30:14.447Z,1.2
2017-12-11T06:31:15.164Z,1.2
2017-12-11T06:32:15.897Z,1.2
2017-12-11T06:33:16.689Z,1.1
2017-12-11T06:34:17.601Z,1.2
2017-12-11T06:35:18.322Z,1.2
2017-12-11T06:36:19.093Z,1.2
2017-12-11T06:37:19.818Z,1.1
2017-12-11T06:38:20.613Z,1.1
2017-12-11T06:39:21.410Z,1.1
2017-12-11T06:40:22.201Z,1.1
2017-12-11T06:41:22.964Z,1.1
2017-12-11T06:42:23.676Z,1.1
2017-12-11T06:43:24.392Z,1.2
2017-12-11T06:44:25.109Z,1.1
2017-12-11T06:45:25.830Z,1.0
2017-12-11T06:46:26.662Z,1.0
2017-12-11T06:47:27.458Z,1.0
2017-12-11T06:48:28.180Z,1.0
2017-12-11T06:49:28.963Z,1.1
2017-12-11T06:50:29.685Z,1.0
2017-12-11T06:51:30.486Z,1.0
2017-12-11T06:52:31.282Z,1.1
2017-12-11T06:53:32.006Z,1.0
2017-12-11T06:54:32.776Z,1.0
2017-12-11T06:55:33.492Z,1.1
2017-12-11T06:56:34.268Z,1.1
2017-12-11T06:57:35.047Z,1.0
2017-12-11T06:58:35.809Z,1.1
2017-12-11T06:59:36.546Z,1.1
2017-12-11T07:00:37.324Z,1.1
2017-12-11T07:01:38.042Z,1.0
2017-12-11T07:02:38.808Z,1.0
2017-12-11T07:03:39.586Z,1.1
2017-12-11T07:04:40.373Z,1.0
2017-12-11T07:05:41.088Z,1.0
2017-12-11T07:06:41.810Z,1.0
2017-12-11T07:07:42.653Z,1.0
2017-12-11T07:08:43.477Z,1.0
2017-12-11T07:09:44.224Z,1.1
2017-12-11T07:10:44.938Z,1.0
2017-12-11T07:11:45.662Z,1.1
2017-12-11T07:12:46.400Z,1.1
2017-12-11T07:13:47.166Z,1.0
2017-12-11T07:14:47.950Z,1.1
2017-12-11T07:15:48.664Z,1.1
2017-12-11T07:16:49.470Z,1.2
2017-12-11T07:17:50.287Z,1.1
2017-12-11T07:18:51.004Z,1.0
2017-12-11T07:19:51.792Z,1.1
2017-12-11T07:20:52.449Z,1.1
2017-12-11T07:21:53.254Z,1.1
2017-12-11T07:22:54.092Z,1.1
2017-12-11T07:23:54.864Z,1.1
2017-12-11T07:24:55.578Z,1.1
2017-12-11T07:25:56.304Z,1.0
2017-12-11T07:26:57.022Z,1.0
2017-12-11T07:27:57.752Z,1.2
2017-12-11T07:28:58.539Z,1.1
2017-12-11T07:29:59.271Z,1.1
2017-12-11T07:31:00.011Z,1.1
2017-12-11T07:32:00.778Z,1.1
2017-12-11T07:33:01.562Z,1.2
2017-12-11T07:34:02.365Z,1.1
2017-12-11T07:35:03.081Z,1.1
2017-12-11T07:36:03.798Z,1.1
2017-12-11T07:37:04.574Z,1.1
2017-12-11T07:38:05.384Z,1.1
2017-12-11T07:39:06.159Z,1.1
2017-12-11T07:40:06.885Z,1.0
2017-12-11T07:41:07.713Z,1.1
2017-12-11T07:42:08.388Z,1.0
2017-12-11T07:43:09.114Z,1.0
2017-12-11T07:44:09.900Z,1.0
2017-12-11T07:45:10.680Z,1.0
2017-12-11T07:46:11.460Z,1.1
2017-12-11T07:47:12.234Z,1.0
2017-12-11T07:48:13.038Z,1.1
2017-12-11T07:49:13.819Z,1.1
2017-12-11T07:50:14.639Z,1.1
2017-12-11T07:51:15.353Z,1.1
2017-12-11T07:52:16.072Z,1.0
2017-12-11T07:53:16.811Z,1.0
2017-12-11T07:54:17.598Z,1.0
2017-12-11T07:55:18.318Z,1.0
2017-12-11T07:56:19.053Z,1.0
2017-12-11T07:57:19.847Z,1.0
2017-12-11T07:58:20.571Z,1.0
2017-12-11T07:59:21.296Z,1.0
2017-12-11T08:00:22.088Z,1.0
2017-12-11T08:01:22.812Z,1.2
2017-12-11T08:02:23.587Z,1.0
2017-12-11T08:03:24.378Z,1.1
2017-12-11T08:04:25.162Z,1.1
2017-12-11T08:05:25.878Z,1.1
2017-12-11T08:06:26.612Z,1.0
2017-12-11T08:07:27.329Z,1.1
2017-12-11T08:08:28.195Z,1.1
2017-12-11T08:09:28.969Z,1.1
2017-12-11T08:10:29.688Z,1.1
2017-12-11T08:11:30.482Z,1.2
2017-12-11T08:12:31.212Z,1.1
2017-12-11T08:13:31.982Z,1.1
2017-12-11T08:14:32.769Z,1.1
2017-12-11T08:15:33.504Z,1.2
2017-12-11T08:16:34.298Z,1.2
2017-12-11T08:17:35.028Z,1.1
2017-12-11T08:18:35.876Z,1.2
2017-12-11T08:19:36.602Z,1.2
2017-12-11T08:20:37.402Z,1.2
2017-12-11T08:21:38.190Z,1.3
2017-12-11T08:22:38.980Z,1.3
2017-12-11T08:23:39.783Z,1.2
2017-12-11T08:24:40.568Z,1.1
2017-12-11T08:25:41.319Z,1.2
2017-12-11T08:26:42.028Z,1.2
2017-12-11T08:27:42.763Z,1.2
2017-12-11T08:28:43.492Z,1.2
2017-12-11T08:29:44.214Z,1.2
2017-12-11T08:30:45.191Z,1.1
2017-12-11T08:31:45.866Z,1.1
2017-12-11T08:32:46.595Z,1.1
2017-12-11T08:33:47.387Z,1.2
2017-12-11T08:34:48.114Z,1.1
2017-12-11T08:35:48.901Z,1.1
2017-12-11T08:36:49.688Z,1.2
2017-12-11T08:37:50.424Z,1.1
2017-12-11T08:38:51.224Z,1.1
2017-12-11T08:39:51.945Z,1.2
2017-12-11T08:40:52.791Z,1.1
2017-12-11T08:41:53.464Z,1.1
2017-12-11T08:42:54.308Z,1.2
2017-12-11T08:43:55.044Z,1.2
2017-12-11T08:44:55.833Z,1.2
2017-12-11T08:45:56.577Z,1.1
2017-12-11T08:46:57.289Z,1.2
2017-12-11T08:47:58.012Z,1.1
2017-12-11T08:48:58.776Z,1.2
2017-12-11T08:49:59.583Z,1.2
2017-12-11T08:51:00.289Z,1.2
2017-12-11T08:52:01.079Z,1.1
2017-12-11T08:53:01.800Z,1.1
2017-12-11T08:54:02.603Z,1.1
2017-12-11T08:55:03.385Z,1.2
2017-12-11T08:56:04.173Z,1.2
2017-12-11T08:57:04.958Z,1.1
2017-12-11T08:58:05.701Z,1.1
2017-12-11T08:59:06.455Z,1.1
2017-12-11T09:00:07.264Z,1.2
2017-12-11T09:01:08.015Z,1.1
2017-12-11T09:02:08.799Z,1.2
2017-12-11T09:03:09.527Z,1.1
2017-12-11T09:04:10.254Z,1.2
2017-12-11T09:05:11.079Z,1.2
2017-12-11T09:06:11.863Z,1.2
2017-12-11T09:07:12.596Z,1.2
2017-12-11T09:08:13.320Z,1.1
2017-12-11T09:09:14.103Z,1.2
2017-12-11T09:10:14.818Z,1.2
2017-12-11T09:11:15.553Z,1.2
2017-12-11T09:12:16.299Z,1.2
2017-12-11T09:13:16.990Z,1.2
2017-12-11T09:14:17.717Z,1.2
2017-12-11T09:15:18.489Z,1.1
2017-12-11T09:16:19.206Z,1.1
2017-12-11T09:17:19.953Z,1.2
2017-12-11T09:18:20.669Z,1.2
2017-12-11T09:19:21.409Z,1.2
2017-12-11T09:20:22.161Z,1.1
2017-12-11T09:21:22.996Z,1.2
2017-12-11T09:22:23.732Z,1.1
2017-12-11T09:23:24.452Z,1.2
2017-12-11T09:24:25.184Z,1.1
2017-12-11T09:25:25.903Z,1.2
2017-12-11T09:26:26.619Z,1.2
2017-12-11T09:27:27.382Z,1.2
2017-12-11T09:28:28.165Z,1.1
2017-12-11T09:29:29.011Z,1.2
2017-12-11T09:30:29.742Z,1.2
2017-12-11T09:31:30.471Z,1.1
2017-12-11T09:32:31.264Z,1.1
2017-12-11T09:33:32.007Z,1.1
2017-12-11T09:34:32.769Z,1.2
2017-12-11T09:35:33.512Z,1.1
2017-12-11T09:36:34.274Z,1.2
2017-12-11T09:37:35.003Z,1.1
2017-12-11T09:38:35.664Z,1.2
2017-12-11T09:39:36.392Z,1.2
2017-12-11T09:40:37.108Z,1.1
2017-12-11T09:41:37.840Z,1.2
2017-12-11T09:42:38.643Z,1.2
2017-12-11T09:43:39.369Z,1.2
2017-12-11T09:44:40.095Z,1.1
2017-12-11T09:45:40.879Z,1.1
2017-12-11T09:46:41.659Z,1.1
2017-12-11T09:47:42.445Z,1.1
2017-12-11T09:48:43.190Z,1.1
2017-12-11T09:49:43.925Z,1.2
2017-12-11T09:50:44.713Z,1.1
2017-12-11T09:51:45.548Z,1.2
2017-12-11T09:52:46.272Z,1.1
2017-12-11T09:53:47.012Z,1.2
2017-12-11T09:54:47.791Z,1.2
2017-12-11T09:55:48.569Z,1.3
2017-12-11T09:56:49.288Z,1.3
2017-12-11T09:57:50.014Z,1.3
2017-12-11T09:58:50.788Z,1.1
2017-12-11T09:59:51.508Z,1.3
2017-12-11T10:00:52.247Z,1.2
2017-12-11T10:01:53.039Z,1.3
2017-12-11T10:02:53.758Z,1.2
2017-12-11T10:03:54.523Z,1.2
2017-12-11T10:04:55.292Z,1.1
2017-12-11T10:05:56.015Z,1.1
2017-12-11T10:06:56.802Z,1.2
2017-12-11T10:07:57.527Z,1.3
2017-12-11T10:08:58.295Z,1.1
2017-12-11T10:09:59.033Z,1.2
2017-12-11T10:10:59.760Z,1.2
2017-12-11T10:12:00.557Z,1.2
2017-12-11T10:13:01.221Z,1.1
2017-12-11T10:14:01.950Z,1.2
2017-12-11T10:15:02.729Z,1.2
2017-12-11T10:16:03.453Z,1.2
2017-12-11T10:17:04.177Z,1.2
2017-12-11T10:18:04.957Z,1.2
2017-12-11T10:19:05.719Z,1.3
2017-12-11T10:20:06.504Z,1.3
2017-12-11T10:21:07.261Z,1.2
2017-12-11T10:22:08.063Z,1.3
2017-12-11T10:23:08.777Z,1.4
2017-12-11T10:24:09.609Z,1.3
2017-12-11T10:25:10.354Z,1.4
2017-12-11T10:26:11.144Z,1.4
2017-12-11T10:27:11.869Z,1.3
2017-12-11T10:28:12.674Z,1.5
2017-12-11T10:29:13.383Z,1.4
2017-12-11T10:30:14.164Z,1.4
2017-12-11T10:31:14.978Z,1.4
2017-12-11T10:32:15.713Z,1.4
2017-12-11T10:33:16.432Z,1.4
2017-12-11T10:34:17.165Z,1.4
2017-12-11T10:35:17.838Z,1.4
2017-12-11T10:36:18.564Z,1.4
2017-12-11T10:37:19.282Z,1.4
2017-12-11T10:38:20.084Z,1.4
2017-12-11T10:39:20.809Z,1.4
2017-12-11T10:40:21.663Z,1.4
2017-12-11T10:41:22.389Z,1.5
2017-12-11T10:42:23.121Z,1.4
2017-12-11T10:43:23.908Z,1.5
2017-12-11T10:44:24.642Z,1.6
2017-12-11T10:45:25.375Z,1.6
2017-12-11T10:46:26.170Z,1.6
2017-12-11T10:47:27.003Z,1.6
2017-12-11T10:48:27.772Z,1.5
2017-12-11T10:49:28.503Z,1.5
2017-12-11T10:50:29.233Z,1.5
2017-12-11T10:51:30.018Z,1.6
2017-12-11T10:52:30.789Z,1.7
2017-12-11T10:53:31.595Z,1.7
2017-12-11T10:54:32.375Z,1.7
2017-12-11T10:55:33.106Z,1.7
2017-12-11T10:56:33.842Z,1.7
2017-12-11T10:57:34.579Z,1.7
2017-12-11T10:58:35.297Z,1.8
2017-12-11T10:59:36.017Z,1.6
2017-12-11T11:00:36.747Z,1.7
2017-12-11T11:01:37.536Z,1.7
2017-12-11T11:02:38.288Z,1.6
2017-12-11T11:03:39.013Z,1.7
2017-12-11T11:04:39.742Z,1.7
2017-12-11T11:05:40.457Z,1.6
2017-12-11T11:06:41.230Z,1.7
2017-12-11T11:07:42.025Z,1.6
2017-12-11T11:08:42.834Z,1.6
2017-12-11T11:09:43.559Z,1.5
2017-12-11T11:10:44.363Z,1.5
2017-12-11T11:11:45.082Z,1.5
2017-12-11T11:12:45.856Z,1.5
2017-12-11T11:13:46.572Z,1.5
2017-12-11T11:14:47.302Z,1.6
2017-12-11T11:15:48.089Z,1.5
2017-12-11T11:16:48.817Z,1.5
2017-12-11T11:17:49.544Z,1.4
2017-12-11T11:18:50.354Z,1.5
2017-12-11T11:19:51.077Z,1.5
2017-12-11T11:20:51.870Z,1.5
2017-12-11T11:21:52.707Z,1.4
2017-12-11T11:22:53.516Z,1.4
2017-12-11T11:23:54.275Z,1.4
2017-12-11T11:24:55.065Z,1.3
2017-12-11T11:25:55.865Z,1.3
2017-12-11T11:26:56.718Z,1.3
2017-12-11T11:27:57.501Z,1.4
2017-12-11T11:28:58.369Z,1.4
2017-12-11T11:29:59.083Z,1.4
2017-12-11T11:30:59.878Z,1.4
2017-12-11T11:32:00.700Z,1.3
2017-12-11T11:33:01.443Z,1.3
2017-12-11T11:34:02.164Z,1.3
2017-12-11T11:35:02.940Z,1.3
2017-12-11T11:36:03.594Z,1.2
2017-12-11T11:37:04.352Z,1.2
2017-12-11T11:38:05.079Z,1.2
2017-12-11T11:39:05.804Z,1.2
2017-12-11T11:40:06.534Z,1.3
2017-12-11T11:41:07.328Z,1.2
2017-12-11T11:42:08.050Z,1.3
2017-12-11T11:43:08.763Z,1.2
2017-12-11T11:44:09.589Z,1.1
2017-12-11T11:45:10.398Z,1.1
2017-12-11T11:46:11.163Z,1.2
2017-12-11T11:47:11.882Z,1.1
2017-12-11T11:48:12.598Z,1.1
2017-12-11T11:49:13.327Z,1.2
2017-12-11T11:50:14.116Z,1.0
2017-12-11T11:51:14.878Z,1.1
2017-12-11T11:52:15.629Z,1.1
2017-12-11T11:53:16.422Z,1.2
2017-12-11T11:54:17.151Z,1.2
2017-12-11T11:55:17.883Z,1.2
2017-12-11T11:56:18.596Z,1.2
2017-12-11T11:57:19.307Z,1.2
2017-12-11T11:58:20.018Z,1.2
2017-12-11T11:59:20.733Z,1.2
2017-12-11T12:00:21.448Z,1.1
2017-12-11T12:01:22.288Z,1.2
2017-12-11T12:02:23.013Z,1.1
2017-12-11T12:03:23.736Z,1.2
2017-12-11T12:04:24.459Z,1.3
2017-12-11T12:05:25.178Z,1.3
2017-12-11T12:06:25.952Z,1.2
2017-12-11T12:07:26.705Z,1.2
2017-12-11T12:08:27.421Z,1.2
2017-12-11T12:09:28.210Z,1.1
2017-12-11T12:10:29.000Z,1.2
2017-12-11T12:11:29.761Z,1.1
2017-12-11T12:12:30.484Z,1.1
2017-12-11T12:13:31.338Z,1.1
2017-12-11T12:14:32.058Z,1.2
2017-12-11T12:15:32.796Z,1.2
2017-12-11T12:16:33.552Z,1.1
2017-12-11T12:17:34.339Z,1.1
2017-12-11T12:18:35.064Z,1.1
2017-12-11T12:19:35.778Z,1.2
2017-12-11T12:20:36.520Z,1.1
2017-12-11T12:21:37.241Z,1.2
2017-12-11T12:22:38.033Z,1.2
2017-12-11T12:23:38.801Z,1.2
2017-12-11T12:24:39.517Z,1.2
2017-12-11T12:25:40.251Z,1.1
2017-12-11T12:26:40.959Z,1.2
2017-12-11T12:27:41.744Z,1.1
2017-12-11T12:28:42.451Z,1.2
2017-12-11T12:29:43.168Z,1.1
2017-12-11T12:30:43.890Z,1.1
2017-12-11T12:31:44.610Z,1.2
2017-12-11T12:32:45.398Z,1.2
2017-12-11T12:33:46.173Z,1.1
2017-12-11T12:34:46.897Z,1.1
2017-12-11T12:35:47.624Z,1.2
2017-12-11T12:36:48.402Z,1.2
2017-12-11T12:37:49.263Z,1.2
2017-12-11T12:38:50.118Z,1.2
2017-12-11T12:39:50.968Z,1.2
2017-12-11T12:40:51.629Z,1.2
2017-12-11T12:41:52.360Z,1.3
2017-12-11T12:42:53.068Z,1.2
2017-12-11T12:43:53.847Z,1.3
2017-12-11T12:44:54.643Z,1.2
2017-12-11T12:45:55.427Z,1.3
2017-12-11T12:46:56.192Z,1.3
2017-12-11T12:47:56.913Z,1.3
2017-12-11T12:48:57.636Z,1.2
2017-12-11T12:49:58.411Z,1.2
2017-12-11T12:50:59.143Z,1.2
2017-12-11T12:51:59.927Z,1.2
2017-12-11T12:53:00.618Z,1.1
2017-12-11T12:54:01.328Z,1.1
2017-12-11T12:55:02.073Z,1.1
2017-12-11T12:57:03.612Z,1.1
2017-12-11T12:58:04.329Z,1.2
2017-12-11T12:59:05.049Z,1.1
2017-12-11T13:00:05.782Z,1.1
2017-12-11T13:01:06.498Z,1.1
2017-12-11T13:02:07.212Z,1.2
2017-12-11T13:03:08.027Z,1.2
2017-12-11T13:04:08.833Z,1.2
2017-12-11T13:05:09.573Z,1.2
2017-12-11T13:06:10.357Z,1.2
2017-12-11T13:07:11.158Z,1.2
2017-12-11T13:08:11.879Z,1.1
2017-12-11T13:09:12.696Z,1.2
2017-12-11T13:10:13.480Z,1.2
2017-12-11T13:11:14.184Z,1.2
2017-12-11T13:12:14.899Z,1.1
2017-12-11T13:13:15.610Z,1.1
2017-12-11T13:14:16.329Z,1.2
2017-12-11T13:15:17.118Z,1.2
2017-12-11T13:16:17.893Z,1.2
2017-12-11T13:17:18.608Z,1.1
2017-12-11T13:18:19.332Z,1.1
2017-12-11T13:19:20.136Z,1.1
2017-12-11T13:20:20.940Z,1.2
2017-12-11T13:21:21.743Z,1.1
2017-12-11T13:22:22.513Z,1.1
2017-12-11T13:23:23.233Z,1.1
2017-12-11T13:24:23.951Z,1.1
2017-12-11T13:25:24.752Z,1.1
2017-12-11T13:26:25.487Z,1.0
2017-12-11T13:27:26.193Z,1.1
2017-12-11T13:28:26.908Z,1.1
2017-12-11T13:29:27.569Z,1.0
2017-12-11T13:30:28.343Z,1.1
2017-12-11T13:31:29.099Z,1.0
2017-12-11T13:32:29.816Z,1.1
2017-12-11T13:33:30.539Z,1.1
2017-12-11T13:34:31.267Z,1.2
2017-12-11T13:35:32.089Z,1.1
2017-12-11T13:36:32.870Z,1.1
2017-12-11T13:37:33.570Z,1.2
2017-12-11T13:38:34.408Z,1.2
2017-12-11T13:39:35.126Z,1.2
2017-12-11T13:40:35.889Z,1.2
2017-12-11T13:41:36.613Z,1.1
2017-12-11T13:42:37.321Z,1.2
2017-12-11T13:43:38.044Z,1.2
2017-12-11T13:44:38.763Z,1.1
2017-12-11T13:45:39.491Z,1.1
2017-12-11T13:46:40.216Z,1.1
2017-12-11T13:47:40.970Z,1.2
2017-12-11T13:48:41.758Z,1.2
2017-12-11T13:49:42.445Z,1.3
2017-12-11T13:50:43.186Z,1.2
2017-12-11T13:51:43.933Z,1.2
2017-12-11T13:52:44.738Z,1.2
2017-12-11T13:53:45.468Z,1.2
2017-12-11T13:54:46.272Z,1.2
2017-12-11T13:55:47.001Z,1.1
2017-12-11T13:56:47.776Z,1.1
2017-12-11T13:57:48.547Z,1.1